createdAt,value
2022-08-17T00:01:52.509Z,1.65
2022-08-17T00:04:21.080Z,1.75
2022-08-17T00:06:50.435Z,1.67
2022-08-17T00:09:19.337Z,1.10
2022-08-17T00:12:41.839Z,1.20
2022-08-17T00:14:37.735Z,1.70
2022-08-17T00:19:34.242Z,1.50
2022-08-17T00:24:50.974Z,1.42
2022-08-17T00:27:21.117Z,1.60
2022-08-17T00:29:48.857Z,1.40
2022-08-17T00:33:13.660Z,2.13
2022-08-17T00:37:33.083Z,1.90
2022-08-17T00:42:31.156Z,1.40
2022-08-17T00:44:59.365Z,1.40
2022-08-17T00:49:54.487Z,1.55
2022-08-17T00:52:30.568Z,2.22
2022-08-17T00:54:59.308Z,1.65
2022-08-17T00:57:31.449Z,1.60
2022-08-17T01:00:08.202Z,1.70
2022-08-17T01:02:51.525Z,1.50
2022-08-17T01:05:23.753Z,1.42
2022-08-17T01:07:54.300Z,1.38
2022-08-17T01:10:57.619Z,1.30
2022-08-17T01:13:16.190Z,1.70
2022-08-17T01:15:53.187Z,1.52
2022-08-17T01:18:21.403Z,1.67
2022-08-17T01:23:21.407Z,1.20
2022-08-17T01:25:56.403Z,1.30
2022-08-17T01:28:36.417Z,1.20
2022-08-17T01:31:15.928Z,1.00
2022-08-17T01:33:43.706Z,1.00
2022-08-17T01:36:11.512Z,1.02
2022-08-17T01:38:40.286Z,1.13
2022-08-17T01:41:12.602Z,1.13
2022-08-17T01:44:04.340Z,1.05
2022-08-17T01:46:37.020Z,0.85
2022-08-17T01:49:10.694Z,0.90
2022-08-17T01:51:39.320Z,0.93
2022-08-17T01:54:12.838Z,1.08
2022-08-17T01:56:43.545Z,1.00
2022-08-17T01:59:16.772Z,1.23
2022-08-17T02:01:45.356Z,1.05
2022-08-17T02:04:13.705Z,1.02
2022-08-17T02:06:52.959Z,1.00
2022-08-17T02:09:25.725Z,1.08
2022-08-17T02:11:59.258Z,0.90
2022-08-17T02:14:27.211Z,0.85
2022-08-17T02:19:23.919Z,1.10
2022-08-17T02:21:54.516Z,0.80
2022-08-17T02:24:58.707Z,0.98
2022-08-17T02:29:47.389Z,1.38
2022-08-17T02:32:28.163Z,1.00
2022-08-17T02:35:00.445Z,1.08
2022-08-17T02:37:29.892Z,0.93
2022-08-17T02:39:58.766Z,1.10
2022-08-17T02:42:41.318Z,1.40
2022-08-17T02:45:15.503Z,1.08
2022-08-17T02:47:44.422Z,0.82
2022-08-17T02:50:15.307Z,1.08
2022-08-17T02:52:45.077Z,1.02
2022-08-17T02:55:26.091Z,1.23
2022-08-17T02:57:54.558Z,1.15
2022-08-17T03:00:34.078Z,1.30
2022-08-17T03:03:04.631Z,1.20
2022-08-17T03:05:34.838Z,1.15
2022-08-17T03:08:03.636Z,1.45
2022-08-17T03:10:31.613Z,1.50
2022-08-17T03:12:59.838Z,1.30
2022-08-17T03:15:30.991Z,1.10
2022-08-17T03:18:00.105Z,1.30
2022-08-17T03:20:29.983Z,1.38
2022-08-17T03:23:02.786Z,1.95
2022-08-17T03:25:35.171Z,1.83
2022-08-17T03:28:04.577Z,1.90
2022-08-17T03:30:33.186Z,1.75
2022-08-17T03:35:24.416Z,2.10
2022-08-17T03:38:00.399Z,2.10
2022-08-17T03:40:55.841Z,2.40
2022-08-17T03:43:19.105Z,2.60
2022-08-17T03:46:05.156Z,2.47
2022-08-17T03:48:52.135Z,2.55
2022-08-17T03:51:41.809Z,2.17
2022-08-17T03:54:30.361Z,2.80
2022-08-17T03:57:10.108Z,2.70
2022-08-17T03:59:39.039Z,2.72
2022-08-17T04:02:11.207Z,2.50
2022-08-17T04:04:39.782Z,3.05
2022-08-17T04:07:08.133Z,2.38
2022-08-17T04:09:36.939Z,2.42
2022-08-17T04:12:05.815Z,2.45
2022-08-17T04:14:49.476Z,2.13
2022-08-17T04:17:21.989Z,2.50
2022-08-17T04:19:50.050Z,2.50
2022-08-17T04:22:32.068Z,2.47
2022-08-17T04:25:15.924Z,2.10
2022-08-17T04:27:43.777Z,2.72
2022-08-17T04:30:12.477Z,2.30
2022-08-17T04:33:04.943Z,2.40
2022-08-17T04:35:58.557Z,2.65
2022-08-17T04:38:29.394Z,3.10
2022-08-17T04:41:17.193Z,3.20
2022-08-17T04:43:47.203Z,2.33
2022-08-17T04:46:18.216Z,2.63
2022-08-17T04:48:51.943Z,2.85
2022-08-17T04:51:21.325Z,3.15
2022-08-17T04:53:54.451Z,2.70
2022-08-17T04:56:25.173Z,2.72
2022-08-17T04:58:55.702Z,2.30
2022-08-17T05:01:25.471Z,2.70
2022-08-17T05:03:56.362Z,2.53
2022-08-17T05:06:24.320Z,2.03
2022-08-17T05:13:50.398Z,2.45
2022-08-17T05:16:19.671Z,2.35
2022-08-17T05:18:47.462Z,2.72
2022-08-17T05:21:16.197Z,2.63
2022-08-17T05:23:44.899Z,2.45
2022-08-17T05:26:26.804Z,1.25
2022-08-17T05:28:57.156Z,1.87
2022-08-17T05:31:29.515Z,1.85
2022-08-17T05:33:57.401Z,2.30
2022-08-17T05:36:42.575Z,2.03
2022-08-17T05:39:17.093Z,2.30
2022-08-17T05:41:48.535Z,1.55
2022-08-17T05:44:16.758Z,1.60
2022-08-17T05:46:50.253Z,1.90
2022-08-17T05:49:25.348Z,1.65
2022-08-17T05:51:56.071Z,2.28
2022-08-17T05:54:51.412Z,1.67
2022-08-17T05:57:53.278Z,1.75
2022-08-17T06:00:30.414Z,2.33
2022-08-17T06:03:27.961Z,1.90
2022-08-17T06:06:08.895Z,1.80
2022-08-17T06:08:51.910Z,2.30
2022-08-17T06:11:25.982Z,1.75
2022-08-17T06:14:10.026Z,1.63
2022-08-17T06:16:43.523Z,1.80
2022-08-17T06:19:38.500Z,1.50
2022-08-17T06:22:08.760Z,1.30
2022-08-17T06:24:45.929Z,1.10
2022-08-17T06:27:33.556Z,0.70
2022-08-17T06:32:40.119Z,0.80
2022-08-17T06:35:10.623Z,1.63
2022-08-17T06:37:49.692Z,1.25
2022-08-17T06:40:53.345Z,0.77
2022-08-17T06:43:54.062Z,1.50
2022-08-17T06:46:43.586Z,1.63
2022-08-17T06:49:22.045Z,2.00
2022-08-17T06:52:46.495Z,1.90
2022-08-17T06:55:24.098Z,2.20
2022-08-17T06:57:55.414Z,2.28
2022-08-17T07:00:28.114Z,1.85
2022-08-17T07:02:55.991Z,2.38
2022-08-17T07:05:44.773Z,2.00
2022-08-17T07:08:27.712Z,2.17
2022-08-17T07:11:01.463Z,2.50
2022-08-17T07:13:43.407Z,2.30
2022-08-17T07:16:33.119Z,2.40
2022-08-17T07:19:00.887Z,1.40
2022-08-17T07:21:43.771Z,1.70
2022-08-17T07:24:30.719Z,2.10
2022-08-17T07:27:08.551Z,1.95
2022-08-17T07:29:47.170Z,2.00
2022-08-17T07:32:19.011Z,1.73
2022-08-17T07:35:00.748Z,1.92
2022-08-17T07:37:28.521Z,1.05
2022-08-17T07:40:15.196Z,1.73
2022-08-17T07:43:06.038Z,1.67
2022-08-17T07:45:54.118Z,2.05
2022-08-17T07:48:26.228Z,2.20
2022-08-17T07:50:54.898Z,2.25
2022-08-17T07:53:26.099Z,1.83
2022-08-17T07:55:54.231Z,1.73
2022-08-17T07:58:24.157Z,2.15
2022-08-17T08:01:09.101Z,2.63
2022-08-17T08:03:45.475Z,2.80
2022-08-17T08:06:23.957Z,1.92
2022-08-17T08:08:55.256Z,2.25
2022-08-17T08:11:35.513Z,2.50
2022-08-17T08:14:43.845Z,2.88
2022-08-17T08:17:12.177Z,2.30
2022-08-17T08:19:39.868Z,2.50
2022-08-17T08:22:18.793Z,3.00
2022-08-17T08:25:14.981Z,2.60
2022-08-17T08:28:15.037Z,2.30
2022-08-17T08:30:49.387Z,2.85
2022-08-17T08:33:36.569Z,3.22
2022-08-17T08:37:12.576Z,2.20
2022-08-17T08:39:20.860Z,3.45
2022-08-17T08:42:17.801Z,2.90
2022-08-17T08:45:00.585Z,2.88
2022-08-17T08:47:54.589Z,2.55
2022-08-17T08:51:03.554Z,1.90
2022-08-17T08:54:16.768Z,1.58
2022-08-17T08:57:32.846Z,2.42
2022-08-17T09:00:16.510Z,2.90
2022-08-17T09:02:59.256Z,2.50
2022-08-17T09:05:57.993Z,2.78
2022-08-17T09:08:43.808Z,2.97
2022-08-17T09:12:01.987Z,2.80
2022-08-17T09:14:47.163Z,3.10
2022-08-17T09:17:36.295Z,2.72
2022-08-17T09:20:11.333Z,2.10
2022-08-17T09:22:48.490Z,2.80
2022-08-17T09:25:28.579Z,2.13
2022-08-17T09:28:04.681Z,2.70
2022-08-17T09:30:46.456Z,2.25
2022-08-17T09:33:19.029Z,2.70
2022-08-17T09:36:18.829Z,1.98
2022-08-17T09:39:01.568Z,2.47
2022-08-17T09:41:49.344Z,2.88
2022-08-17T09:44:26.126Z,3.35
2022-08-17T09:47:12.218Z,3.00
2022-08-17T09:49:49.015Z,2.92
2022-08-17T09:52:21.636Z,2.88
2022-08-17T09:54:51.691Z,2.85
2022-08-17T09:58:01.730Z,3.22
2022-08-17T10:00:35.600Z,3.75
2022-08-17T10:03:46.076Z,2.67
2022-08-17T10:06:23.015Z,2.83
2022-08-17T10:08:57.523Z,2.72
2022-08-17T10:11:54.433Z,3.50
2022-08-17T10:14:44.444Z,2.20
2022-08-17T10:17:26.032Z,2.40
2022-08-17T10:20:07.257Z,2.65
2022-08-17T10:23:27.621Z,3.30
2022-08-17T10:26:17.315Z,3.17
2022-08-17T10:28:45.822Z,3.17
2022-08-17T10:31:46.331Z,2.20
2022-08-17T10:34:47.982Z,2.15
2022-08-17T10:37:46.642Z,3.38
2022-08-17T10:40:40.650Z,2.85
2022-08-17T10:43:11.613Z,2.70
2022-08-17T10:46:30.394Z,2.80
2022-08-17T10:49:23.494Z,2.50
2022-08-17T10:51:54.532Z,4.35
2022-08-17T10:54:25.497Z,2.42
2022-08-17T10:56:56.158Z,2.38
2022-08-17T10:59:36.086Z,2.45
2022-08-17T11:02:23.300Z,2.40
2022-08-17T11:05:38.964Z,3.00
2022-08-17T11:08:28.275Z,2.72
2022-08-17T11:10:55.962Z,3.20
2022-08-17T11:13:33.761Z,2.50
2022-08-17T11:19:10.195Z,2.60
2022-08-17T11:21:39.240Z,2.67
2022-08-17T11:24:33.065Z,2.88
2022-08-17T11:27:00.859Z,3.00
2022-08-17T11:30:02.207Z,3.05
2022-08-17T11:32:31.315Z,3.47
2022-08-17T11:35:19.384Z,3.33
2022-08-17T11:38:15.904Z,3.47
2022-08-17T11:41:24.102Z,3.17
2022-08-17T11:43:55.786Z,3.72
2022-08-17T11:46:51.764Z,2.97
2022-08-17T11:50:00.637Z,3.35
2022-08-17T11:52:42.335Z,3.10
2022-08-17T11:55:38.433Z,3.80
2022-08-17T11:58:29.595Z,3.78
2022-08-17T12:01:01.316Z,3.45
2022-08-17T12:03:32.416Z,3.90
2022-08-17T12:06:10.993Z,3.65
2022-08-17T12:08:43.585Z,4.47
2022-08-17T12:11:56.359Z,4.65
2022-08-17T12:14:15.220Z,4.03
2022-08-17T12:16:45.682Z,3.92
2022-08-17T12:19:21.136Z,4.18
2022-08-17T12:22:05.063Z,3.97
2022-08-17T12:24:49.286Z,4.20
2022-08-17T12:28:04.320Z,4.00
2022-08-17T12:30:22.114Z,2.97
2022-08-17T12:32:50.107Z,3.92
2022-08-17T12:35:29.652Z,3.08
2022-08-17T12:37:58.022Z,4.32
2022-08-17T12:40:28.818Z,4.10
2022-08-17T12:43:06.341Z,3.90
2022-08-17T12:45:42.537Z,4.53
2022-08-17T12:48:13.343Z,4.68
2022-08-17T12:50:44.884Z,5.28
2022-08-17T12:53:24.965Z,4.50
2022-08-17T12:55:54.850Z,5.05
2022-08-17T12:58:28.171Z,4.53
2022-08-17T13:01:09.232Z,4.57
2022-08-17T13:03:42.890Z,3.72
2022-08-17T13:06:14.698Z,5.15
2022-08-17T13:08:47.847Z,3.88
2022-08-17T13:11:16.529Z,3.35
2022-08-17T13:13:47.158Z,4.20
2022-08-17T13:16:17.101Z,3.10
2022-08-17T13:18:46.559Z,3.78
2022-08-17T13:21:22.326Z,3.53
2022-08-17T13:24:11.421Z,4.50
2022-08-17T13:26:48.152Z,7.35
2022-08-17T13:29:34.165Z,4.47
2022-08-17T13:32:13.050Z,4.88
2022-08-17T13:35:12.246Z,4.78
2022-08-17T13:37:58.549Z,3.47
2022-08-17T13:40:30.582Z,4.10
2022-08-17T13:42:58.757Z,4.45
2022-08-17T13:45:36.720Z,4.53
2022-08-17T13:48:15.719Z,4.80
2022-08-17T13:50:52.678Z,5.43
2022-08-17T13:53:37.809Z,5.40
2022-08-17T13:56:38.235Z,4.63
2022-08-17T13:59:16.687Z,5.15
2022-08-17T14:02:05.491Z,5.70
2022-08-17T14:04:34.252Z,5.00
2022-08-17T14:07:01.931Z,5.65
2022-08-17T14:09:37.389Z,4.95
2022-08-17T14:12:10.745Z,5.10
2022-08-17T14:14:39.437Z,4.93
2022-08-17T14:17:07.968Z,5.30
2022-08-17T14:19:36.462Z,4.95
2022-08-17T14:22:05.143Z,5.68
2022-08-17T14:24:35.500Z,5.72
2022-08-17T14:27:05.244Z,4.93
2022-08-17T14:30:49.336Z,5.35
2022-08-17T14:33:24.923Z,4.78
2022-08-17T14:35:53.730Z,5.43
2022-08-17T14:38:21.628Z,4.78
2022-08-17T14:40:49.674Z,4.18
2022-08-17T14:43:18.515Z,4.65
2022-08-17T14:45:47.055Z,4.60
2022-08-17T14:48:14.889Z,5.65
2022-08-17T14:53:14.218Z,5.00
2022-08-17T14:55:42.095Z,5.38
2022-08-17T15:03:05.403Z,4.88
2022-08-17T15:05:36.862Z,5.25
2022-08-17T15:08:05.957Z,5.35
2022-08-17T15:10:34.301Z,5.60
2022-08-17T15:13:02.896Z,5.57
2022-08-17T15:15:31.083Z,5.90
2022-08-17T15:18:00.067Z,5.25
2022-08-17T15:20:29.977Z,5.72
2022-08-17T15:22:59.229Z,5.70
2022-08-17T15:25:31.959Z,5.97
2022-08-17T15:28:00.897Z,5.85
2022-08-17T15:30:28.765Z,6.10
2022-08-17T15:35:29.451Z,6.30
2022-08-17T15:38:10.545Z,5.32
2022-08-17T15:40:43.252Z,7.18
2022-08-17T15:43:17.304Z,5.85
2022-08-17T15:45:58.703Z,6.45
2022-08-17T15:48:41.482Z,6.60
2022-08-17T15:51:24.269Z,5.80
2022-08-17T15:53:54.711Z,6.07
2022-08-17T15:56:22.980Z,4.95
2022-08-17T15:58:51.370Z,5.28
2022-08-17T16:03:01.953Z,5.70
2022-08-17T16:04:26.889Z,5.20
2022-08-17T16:06:58.781Z,5.05
2022-08-17T16:09:27.282Z,6.22
2022-08-17T16:11:56.356Z,7.10
2022-08-17T16:14:28.887Z,8.65
2022-08-17T16:17:01.477Z,10.02
2022-08-17T16:19:29.290Z,7.20
2022-08-17T16:24:25.104Z,7.13
2022-08-17T16:26:55.444Z,6.88
2022-08-17T16:29:23.613Z,5.25
2022-08-17T16:31:51.872Z,5.82
2022-08-17T16:34:20.154Z,5.60
2022-08-17T16:36:51.720Z,6.32
2022-08-17T16:39:25.727Z,6.10
2022-08-17T16:41:53.657Z,5.97
2022-08-17T16:44:22.173Z,6.07
2022-08-17T16:46:50.561Z,5.70
2022-08-17T16:49:35.244Z,5.70
2022-08-17T16:52:10.677Z,5.78
2022-08-17T16:54:44.110Z,4.88
2022-08-17T16:57:13.514Z,5.55
2022-08-17T16:59:43.911Z,5.50
2022-08-17T17:02:24.243Z,5.13
2022-08-17T17:05:10.916Z,5.85
2022-08-17T17:07:53.513Z,6.33
2022-08-17T17:10:26.441Z,5.40
2022-08-17T17:13:02.006Z,5.75
2022-08-17T17:16:06.184Z,6.15
2022-08-17T17:18:47.816Z,5.30
2022-08-17T17:21:21.090Z,5.40
2022-08-17T17:23:57.190Z,5.82
2022-08-17T17:26:29.575Z,5.55
2022-08-17T17:29:06.369Z,5.65
2022-08-17T17:31:43.115Z,5.40
2022-08-17T17:34:16.639Z,5.57
2022-08-17T17:36:54.495Z,6.13
2022-08-17T17:42:08.518Z,6.05
2022-08-17T17:44:43.862Z,6.40
2022-08-17T17:47:12.913Z,5.78
2022-08-17T17:49:46.748Z,5.82
2022-08-17T17:52:18.954Z,5.90
2022-08-17T17:54:50.035Z,5.10
2022-08-17T17:57:39.414Z,6.00
2022-08-17T18:00:15.254Z,5.75
2022-08-17T18:02:56.593Z,5.40
2022-08-17T18:05:39.513Z,5.45
2022-08-17T18:08:34.404Z,4.38
2022-08-17T18:11:24.657Z,4.65
2022-08-17T18:13:57.503Z,4.47
2022-08-17T18:16:31.899Z,5.45
2022-08-17T18:19:00.727Z,5.28
2022-08-17T18:21:44.046Z,5.47
2022-08-17T18:24:13.098Z,5.15
2022-08-17T18:26:55.605Z,5.82
2022-08-17T18:29:30.326Z,5.95
2022-08-17T18:32:16.339Z,5.43
2022-08-17T18:34:50.603Z,5.93
2022-08-17T18:37:45.336Z,5.07
2022-08-17T18:40:19.593Z,6.10
2022-08-17T18:42:59.275Z,5.43
2022-08-17T18:45:33.618Z,5.45
2022-08-17T18:48:02.569Z,4.38
2022-08-17T18:50:43.782Z,5.18
2022-08-17T18:53:21.488Z,4.72
2022-08-17T18:56:20.328Z,4.95
2022-08-17T18:58:58.929Z,4.65
2022-08-17T19:01:53.635Z,4.10
2022-08-17T19:04:42.424Z,4.05
2022-08-17T19:07:30.575Z,4.65
2022-08-17T19:10:28.961Z,4.50
2022-08-17T19:13:12.291Z,4.90
2022-08-17T19:16:12.161Z,4.05
2022-08-17T19:18:52.331Z,4.50
2022-08-17T19:21:37.386Z,4.53
2022-08-17T19:24:19.676Z,4.93
2022-08-17T19:26:55.587Z,5.38
2022-08-17T19:29:38.519Z,4.95
2022-08-17T19:32:11.208Z,4.80
2022-08-17T19:34:42.431Z,4.80
2022-08-17T19:37:26.881Z,5.68
2022-08-17T19:40:04.476Z,4.95
2022-08-17T19:42:51.504Z,4.88
2022-08-17T19:45:19.704Z,5.07
2022-08-17T19:51:01.786Z,4.65
2022-08-17T19:53:47.395Z,5.57
2022-08-17T19:56:36.040Z,5.95
2022-08-17T19:59:13.544Z,5.95
2022-08-17T20:01:52.885Z,5.78
2022-08-17T20:04:31.748Z,5.70
2022-08-17T20:07:06.253Z,5.72
2022-08-17T20:09:36.541Z,6.28
2022-08-17T20:12:10.467Z,6.68
2022-08-17T20:14:57.320Z,6.38
2022-08-17T20:17:34.695Z,6.57
2022-08-17T20:20:25.564Z,5.63
2022-08-17T20:23:13.778Z,5.63
2022-08-17T20:26:08.033Z,5.90
2022-08-17T20:28:39.073Z,6.78
2022-08-17T20:31:43.077Z,6.10
2022-08-17T20:34:36.697Z,6.45
2022-08-17T20:37:12.848Z,6.22
2022-08-17T20:40:09.428Z,6.35
2022-08-17T20:42:39.800Z,6.20
2022-08-17T20:45:24.762Z,8.05
2022-08-17T20:48:24.001Z,11.60
2022-08-17T20:50:57.097Z,16.25
2022-08-17T20:53:46.700Z,12.15
2022-08-17T20:56:52.632Z,10.05
2022-08-17T20:59:27.562Z,9.18
2022-08-17T21:02:18.621Z,10.55
2022-08-17T21:05:00.231Z,10.10
2022-08-17T21:07:43.573Z,7.90
2022-08-17T21:10:16.736Z,8.23
2022-08-17T21:13:15.755Z,8.13
2022-08-17T21:16:07.846Z,8.75
2022-08-17T21:18:48.716Z,10.95
2022-08-17T21:21:38.343Z,9.43
2022-08-17T21:24:38.044Z,9.50
2022-08-17T21:27:18.072Z,7.65
2022-08-17T21:30:06.707Z,7.40
2022-08-17T21:32:41.992Z,7.75
2022-08-17T21:35:28.753Z,8.50
2022-08-17T21:38:04.799Z,7.85
2022-08-17T21:40:34.374Z,9.05
2022-08-17T21:43:20.175Z,8.85
2022-08-17T21:45:57.746Z,8.15
2022-08-17T21:48:30.146Z,8.57
2022-08-17T21:51:03.910Z,9.43
2022-08-17T21:53:38.613Z,9.20
2022-08-17T21:56:07.971Z,8.77
2022-08-17T21:58:40.428Z,8.23
2022-08-17T22:01:25.764Z,8.25
2022-08-17T22:04:09.352Z,8.13
2022-08-17T22:06:37.443Z,8.32
2022-08-17T22:11:58.537Z,9.60
2022-08-17T22:14:52.218Z,7.35
2022-08-17T22:17:19.075Z,7.57
2022-08-17T22:19:57.623Z,7.60
2022-08-17T22:22:30.690Z,5.97
2022-08-17T22:25:07.481Z,7.78
2022-08-17T22:27:52.101Z,6.90
2022-08-17T22:30:42.596Z,7.15
2022-08-17T22:33:48.308Z,7.72
2022-08-17T22:36:34.905Z,7.47
2022-08-17T22:39:26.418Z,7.35
2022-08-17T22:42:00.344Z,7.45
2022-08-17T22:44:37.870Z,8.40
2022-08-17T22:47:18.956Z,7.97
2022-08-17T22:49:53.188Z,7.38
2022-08-17T22:52:36.196Z,8.05
2022-08-17T22:55:36.632Z,6.45
2022-08-17T22:58:30.428Z,6.53
2022-08-17T23:01:29.610Z,7.45
2022-08-17T23:04:07.976Z,7.28
2022-08-17T23:06:38.261Z,7.63
2022-08-17T23:09:07.272Z,7.50
2022-08-17T23:11:48.585Z,7.55
2022-08-17T23:14:20.681Z,7.32
2022-08-17T23:16:50.483Z,7.85
2022-08-17T23:19:21.445Z,7.20
2022-08-17T23:21:55.258Z,6.53
2022-08-17T23:24:27.451Z,7.68
2022-08-17T23:27:00.025Z,6.32
2022-08-17T23:29:29.669Z,6.28
2022-08-17T23:31:59.996Z,6.95
2022-08-17T23:34:28.526Z,6.88
2022-08-17T23:36:56.391Z,6.78
2022-08-17T23:39:27.990Z,6.53
2022-08-17T23:41:59.106Z,7.50
2022-08-17T23:44:29.082Z,6.10
2022-08-17T23:46:57.273Z,6.07
2022-08-17T23:49:25.383Z,6.25
2022-08-17T23:54:34.267Z,6.22
2022-08-17T23:57:04.859Z,6.32
2022-08-17T23:59:33.941Z,6.50
